createdAt,value
2019-01-03T00:02:42.143Z,0
2019-01-03T00:03:49.312Z,0
2019-01-03T00:06:49.165Z,0
2019-01-03T00:09:45.764Z,0
2019-01-03T00:14:38.958Z,0
2019-01-03T00:17:38.104Z,0
2019-01-03T00:20:37.286Z,0
2019-01-03T00:23:41.685Z,0
2019-01-03T00:24:41.355Z,0
2019-01-03T00:28:24.923Z,0
2019-01-03T00:32:39.318Z,0
2019-01-03T00:34:12.517Z,0
2019-01-03T00:39:39.205Z,0
2019-01-03T00:41:36.821Z,0
2019-01-03T00:43:39.649Z,0
2019-01-03T00:45:41.085Z,0
2019-01-03T00:48:46.383Z,0
2019-01-03T00:51:40.223Z,0
2019-01-03T00:56:37.934Z,0
2019-01-03T00:57:43.954Z,0
2019-01-03T01:00:41.198Z,0
2019-01-03T01:04:23.165Z,0
2019-01-03T01:08:39.927Z,0
2019-01-03T01:09:40.237Z,0
2019-01-03T01:12:44.426Z,0
2019-01-03T01:16:17.876Z,0
2019-01-03T01:20:42.074Z,0
2019-01-03T01:21:43.112Z,0
2019-01-03T01:26:40.143Z,0
2019-01-03T01:27:44.657Z,0
2019-01-03T01:32:44.995Z,0
2019-01-03T01:35:45.929Z,0
2019-01-03T01:37:47.384Z,0
2019-01-03T01:40:02.867Z,0
2019-01-03T01:43:39.564Z,0
2019-01-03T01:46:06.682Z,0
2019-01-03T01:50:45.215Z,0
2019-01-03T01:53:05.711Z,0
2019-01-03T01:55:52.011Z,0
2019-01-03T01:58:14.561Z,0
2019-01-03T02:00:38.910Z,0
2019-01-03T02:05:40.098Z,0
2019-01-03T02:08:52.136Z,0
2019-01-03T02:10:47.875Z,0
2019-01-03T02:14:37.674Z,0
2019-01-03T02:16:12.793Z,0
2019-01-03T02:18:56.928Z,0
2019-01-03T02:23:55.799Z,0
2019-01-03T02:25:57.401Z,0
2019-01-03T02:28:52.198Z,0
2019-01-03T02:30:39.943Z,0
2019-01-03T02:33:50.359Z,0
2019-01-03T02:36:44.075Z,0
2019-01-03T02:40:49.566Z,0
2019-01-03T02:44:39.947Z,0
2019-01-03T02:46:10.556Z,0
2019-01-03T02:50:38.270Z,0
2019-01-03T02:52:12.692Z,0
2019-01-03T02:54:43.490Z,0
2019-01-03T02:57:46.499Z,0
2019-01-03T03:05:48.543Z,0
2019-01-03T03:07:00.480Z,0
2019-01-03T03:09:38.784Z,0
2019-01-03T03:12:40.131Z,0
2019-01-03T03:16:01.246Z,0
2019-01-03T03:19:14.491Z,0
2019-01-03T03:21:39.038Z,0
2019-01-03T03:24:42.669Z,0
2019-01-03T03:27:42.363Z,0
2019-01-03T03:31:02.356Z,0
2019-01-03T03:33:59.131Z,0
2019-01-03T03:36:47.613Z,0
2019-01-03T03:39:48.602Z,0
2019-01-03T03:43:15.036Z,0
2019-01-03T03:45:38.881Z,0
2019-01-03T03:48:41.793Z,0
2019-01-03T03:52:18.842Z,0
2019-01-03T03:55:18.797Z,0
2019-01-03T03:59:35.375Z,0
2019-01-03T04:02:39.598Z,0
2019-01-03T04:05:38.844Z,0
2019-01-03T04:06:49.296Z,0
2019-01-03T04:11:47.439Z,0
2019-01-03T04:13:02.879Z,0
2019-01-03T04:16:16.241Z,0
2019-01-03T04:19:10.902Z,0
2019-01-03T04:21:50.318Z,0
2019-01-03T04:25:33.035Z,0
2019-01-03T04:29:37.534Z,0
2019-01-03T04:30:47.338Z,0
2019-01-03T04:34:35.243Z,0
2019-01-03T04:36:54.382Z,0
2019-01-03T04:41:39.418Z,0
2019-01-03T04:42:44.497Z,0
2019-01-03T04:45:42.383Z,0
2019-01-03T04:48:47.410Z,0
2019-01-03T04:51:51.502Z,0
2019-01-03T04:54:40.499Z,0
2019-01-03T04:59:39.724Z,0
2019-01-03T05:00:50.941Z,0
2019-01-03T05:05:38.103Z,0
2019-01-03T05:06:41.682Z,0
2019-01-03T05:10:16.884Z,0
2019-01-03T05:12:49.680Z,0
2019-01-03T05:16:38.683Z,0
2019-01-03T05:20:39.272Z,0
2019-01-03T05:23:38.491Z,0
2019-01-03T05:24:53.662Z,0
2019-01-03T05:27:39.753Z,0
2019-01-03T05:30:44.411Z,0
2019-01-03T05:33:41.633Z,0
2019-01-03T05:36:37.351Z,0
2019-01-03T05:39:41.835Z,0
2019-01-03T05:42:39.363Z,0
2019-01-03T05:45:42.330Z,0
2019-01-03T05:48:52.230Z,0
2019-01-03T05:52:13.459Z,0
2019-01-03T05:54:48.298Z,0
2019-01-03T05:59:39.094Z,0
2019-01-03T06:02:38.391Z,0
2019-01-03T06:05:42.666Z,0
2019-01-03T06:06:19.404Z,0
2019-01-03T06:09:42.854Z,0
2019-01-03T06:12:55.457Z,0
2019-01-03T06:15:42.229Z,0
2019-01-03T06:20:38.724Z,0
2019-01-03T06:21:42.611Z,0
2019-01-03T06:24:58.458Z,0
2019-01-03T06:29:41.325Z,0
2019-01-03T06:33:01.049Z,0
2019-01-03T06:35:39.768Z,0
2019-01-03T06:36:38.286Z,0
2019-01-03T06:39:41.015Z,0
2019-01-03T06:42:59.552Z,0
2019-01-03T06:46:13.168Z,0
2019-01-03T06:48:58.724Z,0
2019-01-03T06:51:43.089Z,0
2019-01-03T06:55:46.897Z,0
2019-01-03T06:57:43.903Z,0
2019-01-03T07:01:34.978Z,0
2019-01-03T07:03:41.096Z,0
2019-01-03T07:06:55.884Z,0
2019-01-03T07:11:40.422Z,0
2019-01-03T07:13:41.388Z,0
2019-01-03T07:15:51.447Z,0
2019-01-03T07:18:42.809Z,0
2019-01-03T07:23:37.132Z,0
2019-01-03T07:26:41.589Z,1
2019-01-03T07:28:48.847Z,1
2019-01-03T07:31:30.575Z,2
2019-01-03T07:35:39.096Z,2
2019-01-03T07:38:38.391Z,3
2019-01-03T07:39:46.492Z,0
2019-01-03T07:43:18.192Z,3
2019-01-03T07:47:41.166Z,0
2019-01-03T07:50:40.191Z,6
2019-01-03T07:51:48.086Z,6
2019-01-03T07:56:38.632Z,7
2019-01-03T07:57:40.662Z,8
2019-01-03T08:03:52.166Z,9
2019-01-03T08:06:41.646Z,8
2019-01-03T08:11:39.719Z,0
2019-01-03T08:14:38.889Z,10
2019-01-03T08:15:49.624Z,0
2019-01-03T08:20:42.555Z,0
2019-01-03T08:23:41.660Z,0
2019-01-03T08:25:12.815Z,13
2019-01-03T08:29:50.397Z,2
2019-01-03T08:32:39.315Z,2
2019-01-03T08:33:52.137Z,3
2019-01-03T08:38:37.625Z,3
2019-01-03T08:40:34.197Z,3
2019-01-03T08:43:04.787Z,17
2019-01-03T08:46:34.658Z,7
2019-01-03T08:49:21.620Z,7
2019-01-03T08:53:38.851Z,19
2019-01-03T08:54:38.567Z,17
2019-01-03T08:59:37.187Z,13
2019-01-03T09:00:51.873Z,12
2019-01-03T09:03:45.044Z,12
2019-01-03T09:08:39.903Z,19
2019-01-03T09:09:58.149Z,20
2019-01-03T09:13:15.322Z,32
2019-01-03T09:15:39.907Z,17
2019-01-03T09:18:43.627Z,11
2019-01-03T09:23:41.055Z,21
2019-01-03T09:25:01.643Z,20
2019-01-03T09:27:45.662Z,12
2019-01-03T09:30:44.031Z,16
2019-01-03T09:35:37.937Z,14
2019-01-03T09:36:47.335Z,15
2019-01-03T09:41:41.426Z,23
2019-01-03T09:42:47.707Z,27
2019-01-03T09:45:28.659Z,18
2019-01-03T09:48:29.064Z,18
2019-01-03T09:51:29.054Z,23
2019-01-03T09:54:29.018Z,20
2019-01-03T09:57:28.816Z,23
2019-01-03T10:00:28.750Z,20
2019-01-03T10:03:28.639Z,8
2019-01-03T10:06:28.444Z,23
2019-01-03T10:09:29.446Z,20
2019-01-03T10:12:29.198Z,26
2019-01-03T10:15:28.870Z,11
2019-01-03T10:18:28.771Z,9
2019-01-03T10:21:28.769Z,27
2019-01-03T10:24:29.094Z,23
2019-01-03T10:27:28.334Z,27
2019-01-03T10:30:29.180Z,45
2019-01-03T10:33:29.427Z,28
2019-01-03T10:36:30.114Z,22
2019-01-03T10:39:28.840Z,20
2019-01-03T10:42:28.603Z,17
2019-01-03T10:45:28.455Z,25
2019-01-03T10:48:28.294Z,27
2019-01-03T10:51:29.087Z,13
2019-01-03T10:54:28.931Z,10
2019-01-03T10:57:28.641Z,13
2019-01-03T11:00:28.553Z,7
2019-01-03T11:03:28.356Z,20
2019-01-03T11:06:29.335Z,26
2019-01-03T11:09:29.245Z,29
2019-01-03T11:12:28.986Z,33
2019-01-03T11:15:28.889Z,31
2019-01-03T11:18:29.105Z,4
2019-01-03T11:21:29.059Z,11
2019-01-03T11:24:28.896Z,17
2019-01-03T11:27:28.818Z,18
2019-01-03T11:30:28.686Z,9
2019-01-03T11:33:28.534Z,27
2019-01-03T11:36:28.414Z,28
2019-01-03T11:39:29.251Z,27
2019-01-03T11:42:29.168Z,32
2019-01-03T11:45:29.107Z,30
2019-01-03T11:48:29.135Z,35
2019-01-03T11:51:28.873Z,30
2019-01-03T11:54:28.672Z,45
2019-01-03T11:57:28.928Z,27
2019-01-03T12:00:28.874Z,35
2019-01-03T12:03:28.634Z,48
2019-01-03T12:06:28.554Z,45
2019-01-03T12:09:28.545Z,21
2019-01-03T12:12:28.408Z,19
2019-01-03T12:15:28.321Z,35
2019-01-03T12:18:28.409Z,24
2019-01-03T12:21:29.243Z,29
2019-01-03T12:24:30.731Z,24
2019-01-03T12:27:28.695Z,25
2019-01-03T12:30:28.624Z,25
2019-01-03T12:33:28.431Z,25
2019-01-03T12:36:29.270Z,26
2019-01-03T12:39:29.140Z,36
2019-01-03T12:42:29.041Z,36
2019-01-03T12:45:29.111Z,23
2019-01-03T12:48:29.012Z,43
2019-01-03T12:51:28.835Z,31
2019-01-03T12:54:28.849Z,35
2019-01-03T12:57:28.781Z,28
2019-01-03T13:00:28.568Z,16
2019-01-03T13:03:28.593Z,21
2019-01-03T13:06:34.423Z,30
2019-01-03T13:09:29.392Z,27
2019-01-03T13:12:29.272Z,36
2019-01-03T13:15:29.203Z,37
2019-01-03T13:18:29.263Z,24
2019-01-03T13:21:29.251Z,35
2019-01-03T13:24:29.088Z,18
2019-01-03T13:27:28.883Z,17
2019-01-03T13:30:28.888Z,19
2019-01-03T13:33:28.759Z,20
2019-01-03T13:36:29.681Z,28
2019-01-03T13:39:28.307Z,26
2019-01-03T13:42:29.124Z,29
2019-01-03T13:45:28.998Z,14
2019-01-03T13:48:28.873Z,23
2019-01-03T13:51:28.709Z,11
2019-01-03T13:54:29.706Z,13
2019-01-03T13:57:28.658Z,20
2019-01-03T14:00:28.421Z,29
2019-01-03T14:03:29.181Z,14
2019-01-03T14:06:28.926Z,22
2019-01-03T14:09:29.071Z,19
2019-01-03T14:12:29.021Z,17
2019-01-03T14:15:28.920Z,0
2019-01-03T14:18:29.047Z,0
2019-01-03T14:21:29.846Z,11
2019-01-03T14:24:29.064Z,16
2019-01-03T14:27:28.990Z,3
2019-01-03T14:30:28.820Z,10
2019-01-03T14:33:28.743Z,10
2019-01-03T14:36:28.483Z,1
2019-01-03T14:39:28.256Z,10
2019-01-03T14:42:29.106Z,0
2019-01-03T14:45:29.026Z,0
2019-01-03T14:48:28.787Z,0
2019-01-03T14:51:28.540Z,5
2019-01-03T14:54:29.064Z,5
2019-01-03T14:57:28.828Z,0
2019-01-03T15:00:28.818Z,0
2019-01-03T15:03:28.658Z,0
2019-01-03T15:06:28.444Z,0
2019-01-03T15:09:29.583Z,0
2019-01-03T15:12:28.588Z,3
2019-01-03T15:15:28.588Z,0
2019-01-03T15:18:28.477Z,3
2019-01-03T15:21:28.310Z,0
2019-01-03T15:24:30.398Z,3
2019-01-03T15:27:29.292Z,0
2019-01-03T15:30:29.107Z,0
2019-01-03T15:33:29.339Z,1
2019-01-03T15:36:29.186Z,1
2019-01-03T15:39:29.031Z,1
2019-01-03T15:42:29.078Z,0
2019-01-03T15:45:34.106Z,0
2019-01-03T15:48:28.850Z,0
2019-01-03T15:51:28.555Z,0
2019-01-03T15:54:28.449Z,0
2019-01-03T15:57:28.412Z,0
2019-01-03T16:00:28.274Z,0
2019-01-03T16:03:29.230Z,0
2019-01-03T16:06:29.107Z,0
2019-01-03T16:09:28.993Z,0
2019-01-03T16:12:28.625Z,0
2019-01-03T16:15:28.689Z,0
2019-01-03T16:18:28.707Z,0
2019-01-03T16:21:28.456Z,0
2019-01-03T16:24:29.303Z,0
2019-01-03T16:27:29.184Z,0
2019-01-03T16:30:28.970Z,0
2019-01-03T16:33:28.889Z,0
2019-01-03T16:36:28.836Z,0
2019-01-03T16:39:28.672Z,0
2019-01-03T16:42:40.734Z,0
2019-01-03T16:45:28.711Z,0
2019-01-03T16:48:28.474Z,0
2019-01-03T16:51:28.302Z,0
2019-01-03T16:54:28.991Z,0
2019-01-03T16:57:28.782Z,0
2019-01-03T17:00:28.551Z,0
2019-01-03T17:03:28.431Z,0
2019-01-03T17:06:28.393Z,0
2019-01-03T17:09:29.264Z,0
2019-01-03T17:12:29.164Z,0
2019-01-03T17:15:29.063Z,0
2019-01-03T17:18:29.023Z,0
2019-01-03T17:21:28.832Z,0
2019-01-03T17:24:29.670Z,0
2019-01-03T17:27:29.284Z,0
2019-01-03T17:30:29.113Z,0
2019-01-03T17:33:29.158Z,0
2019-01-03T17:36:28.946Z,0
2019-01-03T17:39:28.856Z,0
2019-01-03T17:42:28.748Z,0
2019-01-03T17:45:28.814Z,0
2019-01-03T17:48:28.511Z,0
2019-01-03T17:51:28.420Z,0
2019-01-03T17:54:29.096Z,0
2019-01-03T17:57:28.892Z,0
2019-01-03T18:00:29.011Z,0
2019-01-03T18:03:28.810Z,0
2019-01-03T18:06:28.452Z,0
2019-01-03T18:09:28.331Z,0
2019-01-03T18:12:29.337Z,0
2019-01-03T18:15:29.291Z,0
2019-01-03T18:18:29.313Z,0
2019-01-03T18:21:28.468Z,0
2019-01-03T18:24:29.174Z,0
2019-01-03T18:27:28.849Z,0
2019-01-03T18:30:28.729Z,0
2019-01-03T18:33:28.487Z,0
2019-01-03T18:36:28.263Z,0
2019-01-03T18:39:29.146Z,0
2019-01-03T18:42:29.083Z,0
2019-01-03T18:45:29.250Z,0
2019-01-03T18:48:28.969Z,0
2019-01-03T18:51:28.850Z,0
2019-01-03T18:54:28.615Z,0
2019-01-03T18:57:33.568Z,0
2019-01-03T19:00:28.436Z,0
2019-01-03T19:03:28.354Z,0
2019-01-03T19:06:29.218Z,0
2019-01-03T19:09:29.054Z,0
2019-01-03T19:12:29.005Z,0
2019-01-03T19:15:28.906Z,0
2019-01-03T19:18:28.832Z,0
2019-01-03T19:21:28.706Z,0
2019-01-03T19:24:28.511Z,0
2019-01-03T19:27:28.239Z,0
2019-01-03T19:30:28.919Z,0
2019-01-03T19:33:28.638Z,0
2019-01-03T19:36:28.476Z,0
2019-01-03T19:39:29.118Z,0
2019-01-03T19:42:28.983Z,0
2019-01-03T19:45:28.769Z,0
2019-01-03T19:48:28.576Z,0
2019-01-03T19:51:28.405Z,0
2019-01-03T19:54:29.323Z,0
2019-01-03T19:57:28.982Z,0
2019-01-03T20:00:28.847Z,0
2019-01-03T20:03:28.560Z,0
2019-01-03T20:06:28.425Z,0
2019-01-03T20:09:29.385Z,0
2019-01-03T20:12:29.267Z,0
2019-01-03T20:15:29.092Z,0
2019-01-03T20:18:28.990Z,0
2019-01-03T20:21:28.937Z,0
2019-01-03T20:24:28.690Z,0
2019-01-03T20:27:28.358Z,0
2019-01-03T20:30:29.248Z,0
2019-01-03T20:33:28.990Z,0
2019-01-03T20:36:28.859Z,0
2019-01-03T20:39:28.668Z,0
2019-01-03T20:42:28.439Z,0
2019-01-03T20:45:28.307Z,0
2019-01-03T20:48:29.150Z,0
2019-01-03T20:51:29.053Z,0
2019-01-03T20:54:28.900Z,0
2019-01-03T20:57:28.753Z,0
2019-01-03T21:00:28.843Z,0
2019-01-03T21:03:28.723Z,0
2019-01-03T21:06:28.511Z,0
2019-01-03T21:09:28.359Z,0
2019-01-03T21:12:29.301Z,0
2019-01-03T21:15:29.161Z,0
2019-01-03T21:18:29.161Z,0
2019-01-03T21:21:29.108Z,0
2019-01-03T21:24:29.058Z,0
2019-01-03T21:27:28.916Z,0
2019-01-03T21:30:28.961Z,0
2019-01-03T21:33:28.964Z,0
2019-01-03T21:36:28.864Z,0
2019-01-03T21:39:28.883Z,0
2019-01-03T21:42:28.909Z,0
2019-01-03T21:45:28.554Z,0
2019-01-03T21:48:28.462Z,0
2019-01-03T21:51:29.395Z,0
2019-01-03T21:54:28.287Z,0
2019-01-03T21:57:29.065Z,0
2019-01-03T22:00:28.991Z,0
2019-01-03T22:03:28.861Z,0
2019-01-03T22:06:28.745Z,0
2019-01-03T22:09:28.692Z,0
2019-01-03T22:12:28.348Z,0
2019-01-03T22:15:29.195Z,0
2019-01-03T22:18:29.399Z,0
2019-01-03T22:21:29.087Z,0
2019-01-03T22:24:28.796Z,0
2019-01-03T22:27:28.674Z,0
2019-01-03T22:30:29.334Z,0
2019-01-03T22:33:29.284Z,0
2019-01-03T22:36:29.336Z,0
2019-01-03T22:39:28.275Z,0
2019-01-03T22:42:29.286Z,0
2019-01-03T22:45:29.116Z,0
2019-01-03T22:48:28.958Z,0
2019-01-03T22:51:33.686Z,0
2019-01-03T22:54:28.450Z,0
2019-01-03T22:57:29.288Z,0
2019-01-03T23:00:35.227Z,0
2019-01-03T23:03:29.207Z,0
2019-01-03T23:06:29.109Z,0
2019-01-03T23:09:28.820Z,0
2019-01-03T23:12:28.608Z,0
2019-01-03T23:15:28.847Z,0
2019-01-03T23:18:31.522Z,0
2019-01-03T23:21:28.564Z,0
2019-01-03T23:24:28.385Z,0
2019-01-03T23:27:28.381Z,0
2019-01-03T23:30:29.179Z,0
2019-01-03T23:33:28.805Z,0
2019-01-03T23:36:28.753Z,0
2019-01-03T23:39:28.550Z,0
2019-01-03T23:42:28.271Z,0
2019-01-03T23:45:30.459Z,0
2019-01-03T23:48:29.176Z,0
2019-01-03T23:51:29.105Z,0
2019-01-03T23:54:28.908Z,0
2019-01-03T23:57:28.873Z,0
